Historique des mesures à Cassis (13260), France
Quotidien Résumé Décembre 07, 2018 Unités:  US    Métrique   Métrique/US
« Précédent (Jour)
Suivant (Jour) »
Quotidien Hebdomadaire Mensuel Annuel Période au choix
  Maximum: Minimum: Moyenne:
Température: 32 °F 52.7 °F 54.7 °F
Point de rosée: 32 °F 44.8 °F 47.3 °F
Humidité: Humidity % 66 % 73 %
Vitesse du vent: WindSpeedKMH mph 0.0 mph 4.2 mph
Rafales: WindSpeedGustKMH mph - -
Vent:- - WNW
Pression: 0 in 30 in -
Précipitations: 0 in    
Historical Graphs
 
 
Mesures pour : Décembre 07, 2018
Heure Temperature Point de rosée Pression Vent Vitesse du vent Rafales Humidité Pluie (par heure) Conditions
32 °F 32 °F 0 in Calm     Humidity % 0 in SoftwareType W/m2
00:10 54.3 °F 46.2 °F 30.1 in Calm   1.4 mph 74 % 0 in open2300-1.11 W/m2
01:10 53.8 °F 46.4 °F 30.1 in WNW 8.6 mph 14.4 mph 76 % 0 in open2300-1.11 W/m2
02:10 53.4 °F 46.4 °F 30.1 in WNW 4.0 mph 4.0 mph 77 % 0 in open2300-1.11 W/m2
03:10 52.9 °F 46.2 °F 30.1 in Calm   1.1 mph 78 % 0 in open2300-1.11 W/m2
04:10 52.7 °F 46.4 °F 30.1 in Calm   2.2 mph 79 % 0 in open2300-1.11 W/m2
05:10 52.9 °F 46.9 °F 30.1 in Calm   2.5 mph 80 % 0 in open2300-1.11 W/m2
06:10 53.1 °F 47.5 °F 30.1 in NW 7.2 mph 7.2 mph 81 % 0 in open2300-1.11 W/m2
07:10 53.2 °F 47.8 °F 30.1 in Calm   4.0 mph 82 % 0 in open2300-1.11 W/m2
08:10 53.2 °F 48.2 °F 30.1 in WNW 2.2 mph 2.2 mph 83 % 0 in open2300-1.11 W/m2
09:10 53.4 °F 48 °F 30.1 in NW 2.2 mph 2.5 mph 82 % 0 in open2300-1.11 W/m2
10:10 56.1 °F 50.4 °F 30.1 in Calm     81 % 0 in open2300-1.11 W/m2
11:10 58.3 °F 52.2 °F 30.1 in Calm   7.2 mph 80 % 0 in open2300-1.11 W/m2
12:10 59.2 °F 52.7 °F 30.1 in South 2.2 mph 3.2 mph 79 % 0 in open2300-1.11 W/m2
13:10 58.5 °F 50.5 °F 30.1 in West 23.0 mph 23.0 mph 75 % 0 in open2300-1.11 W/m2
14:10 58.6 °F 50.7 °F 30 in WNW 8.3 mph 14.4 mph 75 % 0 in open2300-1.11 W/m2
15:10 58.6 °F 49.6 °F 30 in West 7.6 mph 12.6 mph 72 % 0 in open2300-1.11 W/m2
16:10 57.9 °F 48.9 °F 30 in WNW 14.8 mph 14.8 mph 72 % 0 in open2300-1.11 W/m2
17:10 56.5 °F 48.2 °F 30 in NW 1.4 mph 2.9 mph 74 % 0 in open2300-1.11 W/m2
18:10 56.1 °F 48.2 °F 30 in Calm   1.4 mph 75 % 0 in open2300-1.11 W/m2
19:10 56.1 °F 47.5 °F 30 in East 4.0 mph 4.0 mph 73 % 0 in open2300-1.11 W/m2
20:10 56.3 °F 45.9 °F 30 in WNW 4.0 mph 4.0 mph 68 % 0 in open2300-1.11 W/m2
21:10 55.9 °F 44.8 °F 30 in NNW 3.2 mph 13.3 mph 66 % 0 in open2300-1.11 W/m2
22:10 56.1 °F 45.3 °F 30 in NNW 4.0 mph 4.0 mph 67 % 0 in open2300-1.11 W/m2
23:10 56.5 °F 46.8 °F 30 in NW 8.6 mph 29.5 mph 70 % 0 in open2300-1.11 W/m2
Observations météo à CASSIS
WU-History script by Weather Underground - 1 mb